createdAt,value
2023-01-29T00:03:59.554Z,3.45
2023-01-29T00:09:01.506Z,4.38
2023-01-29T00:14:05.075Z,9.23
2023-01-29T00:19:07.097Z,5.60
2023-01-29T00:24:09.141Z,7.85
2023-01-29T00:29:12.465Z,6.90
2023-01-29T00:34:14.425Z,6.82
2023-01-29T00:39:16.345Z,7.40
2023-01-29T00:44:38.246Z,6.60
2023-01-29T00:49:40.171Z,6.90
2023-01-29T00:54:42.118Z,5.80
2023-01-29T00:59:45.402Z,5.32
2023-01-29T01:04:47.362Z,8.63
2023-01-29T01:10:08.134Z,5.15
2023-01-29T01:15:12.229Z,4.90
2023-01-29T01:20:15.296Z,6.18
2023-01-29T01:25:18.776Z,4.03
2023-01-29T01:30:22.274Z,5.20
2023-01-29T01:35:24.207Z,3.53
2023-01-29T01:40:26.880Z,5.05
2023-01-29T01:45:32.100Z,5.43
2023-01-29T01:50:39.319Z,4.90
2023-01-29T01:55:45.698Z,3.05
2023-01-29T02:00:49.213Z,6.15
2023-01-29T02:06:13.269Z,6.20
2023-01-29T02:11:15.936Z,6.47
2023-01-29T02:16:19.809Z,2.95
2023-01-29T02:21:40.638Z,6.70
2023-01-29T02:26:53.873Z,4.97
2023-01-29T02:32:06.025Z,5.32
2023-01-29T02:37:13.401Z,8.32
2023-01-29T02:42:20.891Z,4.75
2023-01-29T02:47:34.946Z,3.40
2023-01-29T02:52:44.532Z,5.85
2023-01-29T02:57:49.342Z,5.25
2023-01-29T03:02:58.281Z,3.45
2023-01-29T03:08:06.059Z,5.53
2023-01-29T03:13:15.228Z,6.97
2023-01-29T03:18:22.791Z,3.35
2023-01-29T03:23:47.483Z,2.45
2023-01-29T03:29:09.100Z,3.85
2023-01-29T03:34:17.112Z,3.53
2023-01-29T03:39:19.064Z,2.97
2023-01-29T03:44:33.638Z,4.07
2023-01-29T03:49:49.452Z,1.92
2023-01-29T03:54:57.832Z,2.85
2023-01-29T04:00:08.816Z,1.30
2023-01-29T04:10:21.304Z,3.15
2023-01-29T04:15:25.882Z,2.20
2023-01-29T04:20:29.242Z,2.78
2023-01-29T04:25:42.595Z,1.75
2023-01-29T04:30:50.418Z,1.60
2023-01-29T04:36:08.318Z,3.45
2023-01-29T04:41:20.909Z,0.95
2023-01-29T04:46:29.898Z,4.07
2023-01-29T04:51:43.891Z,2.72
2023-01-29T04:56:54.869Z,2.78
2023-01-29T05:01:59.199Z,8.35
2023-01-29T05:07:04.743Z,10.18
2023-01-29T05:12:10.606Z,6.85
2023-01-29T05:17:16.777Z,1.92
2023-01-29T05:22:22.691Z,3.55
2023-01-29T05:27:53.727Z,3.88
2023-01-29T05:32:55.652Z,6.57
2023-01-29T05:37:58.949Z,5.15
2023-01-29T05:43:01.408Z,6.53
2023-01-29T05:48:03.705Z,7.15
2023-01-29T05:53:07.028Z,4.63
2023-01-29T05:58:08.963Z,4.07
2023-01-29T06:03:11.014Z,5.97
2023-01-29T06:08:14.357Z,5.93
2023-01-29T06:13:16.300Z,3.40
2023-01-29T06:18:18.227Z,3.53
2023-01-29T06:23:21.516Z,5.70
2023-01-29T06:28:23.804Z,2.40
2023-01-29T06:33:26.071Z,3.55
2023-01-29T06:38:29.401Z,3.58
2023-01-29T06:43:31.319Z,6.38
2023-01-29T06:48:33.263Z,5.85
2023-01-29T06:53:37.423Z,4.63
2023-01-29T06:58:39.507Z,10.32
2023-01-29T07:03:44.461Z,3.65
2023-01-29T07:08:47.764Z,3.40
2023-01-29T07:13:49.708Z,3.97
2023-01-29T07:18:51.725Z,3.55
2023-01-29T07:23:55.218Z,3.70
2023-01-29T07:28:57.178Z,3.22
2023-01-29T07:34:00.147Z,3.25
2023-01-29T07:39:03.581Z,2.88
2023-01-29T07:44:05.558Z,5.00
2023-01-29T07:49:07.543Z,3.47
2023-01-29T07:54:10.828Z,2.67
2023-01-29T07:59:12.830Z,3.88
2023-01-29T08:04:15.030Z,3.38
2023-01-29T08:09:18.404Z,5.65
2023-01-29T08:14:20.334Z,3.00
2023-01-29T08:19:22.278Z,3.20
2023-01-29T08:24:31.326Z,2.08
2023-01-29T08:29:43.726Z,3.35
2023-01-29T08:34:45.721Z,2.40
2023-01-29T08:39:49.029Z,4.97
2023-01-29T08:44:50.990Z,2.88
2023-01-29T08:49:53.018Z,3.33
2023-01-29T08:54:56.338Z,2.88
2023-01-29T08:59:58.275Z,3.60
2023-01-29T09:05:00.342Z,8.65
2023-01-29T09:10:04.022Z,3.35
2023-01-29T09:15:06.998Z,4.18
2023-01-29T09:20:10.285Z,4.18
2023-01-29T09:25:14.153Z,4.00
2023-01-29T09:30:17.352Z,2.72
2023-01-29T09:35:19.317Z,4.57
2023-01-29T09:40:27.028Z,2.70
2023-01-29T09:45:30.252Z,3.17
2023-01-29T09:50:36.702Z,3.58
2023-01-29T09:55:46.335Z,2.15
2023-01-29T10:00:56.322Z,3.47
2023-01-29T10:06:25.148Z,4.18
2023-01-29T10:11:38.607Z,2.63
2023-01-29T10:16:54.381Z,2.72
2023-01-29T10:22:12.822Z,4.03
2023-01-29T10:27:17.579Z,3.67
2023-01-29T10:32:23.464Z,3.08
2023-01-29T10:37:36.740Z,5.95
2023-01-29T10:42:47.753Z,3.33
2023-01-29T10:48:09.504Z,4.00
2023-01-29T10:53:25.853Z,4.43
2023-01-29T10:58:36.322Z,3.60
2023-01-29T11:03:38.718Z,2.67
2023-01-29T11:08:46.138Z,3.42
2023-01-29T11:13:54.712Z,2.78
2023-01-29T11:18:59.473Z,4.43
2023-01-29T11:24:07.771Z,2.45
2023-01-29T11:29:34.366Z,3.45
2023-01-29T11:34:56.495Z,2.65
2023-01-29T11:39:58.469Z,2.30
2023-01-29T11:45:01.769Z,2.35
2023-01-29T11:50:04.984Z,4.65
2023-01-29T11:55:16.474Z,3.92
2023-01-29T12:00:24.748Z,3.08
2023-01-29T12:05:27.428Z,4.57
2023-01-29T12:10:34.275Z,2.88
2023-01-29T12:15:38.299Z,4.40
2023-01-29T12:20:44.893Z,3.95
2023-01-29T12:25:56.489Z,2.88
2023-01-29T12:31:22.925Z,3.80
2023-01-29T12:36:30.003Z,5.22
2023-01-29T12:41:41.165Z,6.00
2023-01-29T12:46:50.458Z,5.13
2023-01-29T12:51:59.091Z,7.32
2023-01-29T12:57:04.426Z,6.72
2023-01-29T13:02:20.316Z,2.88
2023-01-29T13:07:28.299Z,5.30
2023-01-29T13:12:31.527Z,5.30
2023-01-29T13:17:39.366Z,3.53
2023-01-29T13:22:44.428Z,4.80
2023-01-29T13:27:47.923Z,6.82
2023-01-29T13:32:54.266Z,4.78
2023-01-29T13:37:56.378Z,3.60
2023-01-29T13:43:00.455Z,3.97
2023-01-29T13:48:12.128Z,3.50
2023-01-29T13:53:22.151Z,4.07
2023-01-29T13:58:54.917Z,2.53
2023-01-29T14:04:06.117Z,3.50
2023-01-29T14:09:40.963Z,3.22
2023-01-29T14:15:02.950Z,6.00
2023-01-29T14:20:18.988Z,4.20
2023-01-29T14:25:29.549Z,4.63
2023-01-29T14:30:34.543Z,3.08
2023-01-29T14:35:38.052Z,3.80
2023-01-29T14:40:41.226Z,2.58
2023-01-29T14:45:44.501Z,2.17
2023-01-29T14:50:55.898Z,2.70
2023-01-29T14:56:04.911Z,3.55
2023-01-29T15:01:17.955Z,3.55
2023-01-29T15:06:29.106Z,3.15
2023-01-29T15:11:38.890Z,3.90
2023-01-29T15:16:53.299Z,3.63
2023-01-29T15:22:10.533Z,3.53
2023-01-29T15:32:29.314Z,3.10
2023-01-29T15:37:34.456Z,3.90
2023-01-29T15:42:48.445Z,2.05
2023-01-29T15:47:51.238Z,2.97
2023-01-29T15:53:04.108Z,3.40
2023-01-29T15:58:07.422Z,6.35
2023-01-29T16:03:15.453Z,2.80
2023-01-29T16:08:20.728Z,1.52
2023-01-29T16:13:25.845Z,2.90
2023-01-29T16:18:31.151Z,3.50
2023-01-29T16:23:41.717Z,2.88
2023-01-29T16:28:45.155Z,2.90
2023-01-29T16:33:47.232Z,3.67
2023-01-29T16:38:54.187Z,3.90
2023-01-29T16:43:57.466Z,6.57
2023-01-29T16:48:59.717Z,11.85
2023-01-29T16:54:08.006Z,13.27
2023-01-29T16:59:18.477Z,4.80
2023-01-29T17:04:21.368Z,7.13
2023-01-29T17:09:30.760Z,8.75
2023-01-29T17:14:34.373Z,4.10
2023-01-29T17:19:36.346Z,3.15
2023-01-29T17:24:39.680Z,3.17
2023-01-29T17:29:41.694Z,5.03
2023-01-29T17:34:43.638Z,2.95
2023-01-29T17:39:50.465Z,4.25
2023-01-29T17:44:53.183Z,3.70
2023-01-29T17:49:55.200Z,6.13
2023-01-29T17:54:58.501Z,6.55
2023-01-29T18:00:00.696Z,4.50
2023-01-29T18:05:02.655Z,4.38
2023-01-29T18:10:11.640Z,4.57
2023-01-29T18:15:13.943Z,3.92
2023-01-29T18:20:19.922Z,4.82
2023-01-29T18:25:24.914Z,3.95
2023-01-29T18:30:28.508Z,3.75
2023-01-29T18:35:30.718Z,4.38
2023-01-29T18:40:34.286Z,3.45
2023-01-29T18:45:36.292Z,8.10
2023-01-29T18:50:38.319Z,6.55
2023-01-29T18:55:41.643Z,3.28
2023-01-29T19:00:43.715Z,4.75
2023-01-29T19:05:45.790Z,3.50
2023-01-29T19:10:49.069Z,3.35
2023-01-29T19:15:51.013Z,2.45
2023-01-29T19:20:53.431Z,3.63
2023-01-29T19:25:58.287Z,3.08
2023-01-29T19:31:00.666Z,2.05
2023-01-29T19:36:03.080Z,2.28
2023-01-29T19:41:06.475Z,3.25
2023-01-29T19:46:10.320Z,3.10
2023-01-29T19:51:13.505Z,5.35
2023-01-29T19:56:18.279Z,4.55
2023-01-29T20:01:21.568Z,2.63
2023-01-29T20:06:26.309Z,3.10
2023-01-29T20:11:30.754Z,2.60
2023-01-29T20:21:34.732Z,4.15
2023-01-29T20:26:38.275Z,5.35
2023-01-29T20:31:40.550Z,9.77
2023-01-29T20:36:42.532Z,7.22
2023-01-29T20:41:45.910Z,7.05
2023-01-29T20:46:48.090Z,9.55
2023-01-29T20:51:50.042Z,12.27
2023-01-29T20:56:53.494Z,10.60
2023-01-29T21:01:55.616Z,10.43
2023-01-29T21:06:57.632Z,13.05
2023-01-29T21:12:01.286Z,15.68
2023-01-29T21:17:04.780Z,14.98
2023-01-29T21:22:06.759Z,10.38
2023-01-29T21:27:10.159Z,10.10
2023-01-29T21:32:13.750Z,9.65
2023-01-29T21:37:15.673Z,9.65
2023-01-29T21:42:37.389Z,11.50
2023-01-29T21:47:39.353Z,9.73
2023-01-29T21:52:41.330Z,8.80
2023-01-29T21:57:46.646Z,7.40
2023-01-29T22:02:50.037Z,11.52
2023-01-29T22:07:52.632Z,9.32
2023-01-29T22:12:56.104Z,8.52
2023-01-29T22:17:58.075Z,7.22
2023-01-29T22:23:00.633Z,8.00
2023-01-29T22:28:04.193Z,25.73
2023-01-29T22:33:06.223Z,13.65
2023-01-29T22:38:08.650Z,7.22
2023-01-29T22:43:11.948Z,11.18
2023-01-29T22:48:14.318Z,12.95
2023-01-29T22:53:16.260Z,10.05
2023-01-29T22:58:19.552Z,13.52
2023-01-29T23:03:21.533Z,9.57
2023-01-29T23:08:23.553Z,12.32
2023-01-29T23:13:26.844Z,12.05
2023-01-29T23:18:28.799Z,14.35
2023-01-29T23:23:31.303Z,17.45
2023-01-29T23:28:34.562Z,13.75
2023-01-29T23:33:36.597Z,13.15
2023-01-29T23:38:38.719Z,10.88
2023-01-29T23:43:42.048Z,13.48
2023-01-29T23:48:44.013Z,9.57
2023-01-29T23:53:46.000Z,10.00
2023-01-29T23:58:52.661Z,11.13
